Time;durP1;ratioP1;P1;durP2;ratioP2;P2;SDS_P1;SDS_P2;PMS_P1;PMS_P2;Temp;Humidity;BMP_temperature;BMP_pressure;BME280_temperature;BME280_humidity;BME280_pressure;Samples;Min_cycle;Max_cycle;Signal;HPM_P1;HPM_P2
2023/06/04 00:01:29;;;;;;;2.13;0.77;;;;;;;;;;4999752;28;20034;-80
2023/06/04 00:03:55;;;;;;;2.53;1.00;;;;;;;;;;4993265;28;20039;-80
2023/06/04 00:06:21;;;;;;;1.47;0.80;;;;;;;;;;4996118;28;20038;-80
2023/06/04 00:08:52;;;;;;;1.57;0.83;;;;;;;;;;4991896;28;20034;-80
2023/06/04 00:11:19;;;;;;;3.23;1.00;;;;;;;;;;4999222;28;20058;-79
2023/06/04 00:13:45;;;;;;;2.00;1.13;;;;;;;;;;4996250;28;20031;-80
2023/06/04 00:16:11;;;;;;;2.60;1.10;;;;;;;;;;4999769;28;20014;-79
2023/06/04 00:18:40;;;;;;;8.93;1.10;;;;;;;;;;4998833;28;20019;-80
2023/06/04 00:21:06;;;;;;;2.80;1.30;;;;;;;;;;4998672;28;20018;-79
2023/06/04 00:23:35;;;;;;;2.87;0.73;;;;;;;;;;4999547;28;20047;-78
2023/06/04 00:26:01;;;;;;;2.07;1.00;;;;;;;;;;4994723;28;20019;-79
2023/06/04 00:28:27;;;;;;;3.10;0.80;;;;;;;;;;4999507;28;20049;-81
2023/06/04 00:30:53;;;;;;;1.77;0.70;;;;;;;;;;4997000;28;20089;-78
2023/06/04 00:33:21;;;;;;;2.13;1.00;;;;;;;;;;4996574;28;20046;-79
2023/06/04 00:35:54;;;;;;;2.80;0.80;;;;;;;;;;4998085;28;20090;-78
2023/06/04 00:38:20;;;;;;;2.77;0.63;;;;;;;;;;4994192;28;20014;-78
2023/06/04 00:40:46;;;;;;;2.20;0.83;;;;;;;;;;4997849;28;20101;-79
2023/06/04 00:43:13;;;;;;;2.83;0.80;;;;;;;;;;4998976;28;20027;-78
2023/06/04 00:45:39;;;;;;;2.17;0.80;;;;;;;;;;4999210;28;20027;-79
2023/06/04 00:48:06;;;;;;;2.73;0.90;;;;;;;;;;4997812;28;20023;-79
2023/06/04 00:50:41;;;;;;;2.93;0.87;;;;;;;;;;4998195;28;20026;-78
2023/06/04 00:53:08;;;;;;;1.73;1.07;;;;;;;;;;4996050;28;20029;-79
2023/06/04 00:55:34;;;;;;;6.30;0.90;;;;;;;;;;4997949;28;20046;-79
2023/06/04 00:58:04;;;;;;;2.67;0.80;;;;;;;;;;4995964;28;20031;-79
2023/06/04 01:00:30;;;;;;;10.53;0.93;;;;;;;;;;4990832;28;20050;-78
2023/06/04 01:03:02;;;;;;;3.17;0.90;;;;;;;;;;4995620;28;20030;-79
2023/06/04 01:05:29;;;;;;;;;;;;;;;;;;4997433;28;20142;-78
2023/06/04 01:07:55;;;;;;;1.70;0.63;;;;;;;;;;4998071;28;19923;-79
2023/06/04 01:10:22;;;;;;;2.17;0.80;;;;;;;;;;4996010;28;20018;-80
2023/06/04 01:12:48;;;;;;;1.77;0.80;;;;;;;;;;4990408;28;20106;-79
2023/06/04 01:15:14;;;;;;;1.37;0.90;;;;;;;;;;4999016;28;20038;-78
2023/06/04 01:17:41;;;;;;;2.27;1.23;;;;;;;;;;4996531;28;20022;-79
2023/06/04 01:20:08;;;;;;;1.90;1.20;;;;;;;;;;4995551;28;20205;-78
2023/06/04 01:23:18;;;;;;;4.00;0.87;;;;;;;;;;4996207;28;20034;-80
2023/06/04 01:25:49;;;;;;;1.40;0.90;;;;;;;;;;4990514;28;20063;-79
2023/06/04 01:28:17;;;;;;;2.40;1.00;;;;;;;;;;4999101;28;20026;-78
2023/06/04 01:30:45;;;;;;;4.20;1.23;;;;;;;;;;4995174;28;20042;-78
2023/06/04 01:33:17;;;;;;;3.63;1.07;;;;;;;;;;4999611;28;20010;-79
2023/06/04 01:35:43;;;;;;;2.15;0.88;;;;;;;;;;4997800;28;20039;-81
2023/06/04 01:38:10;;;;;;;2.03;0.90;;;;;;;;;;4996937;28;20022;-78
2023/06/04 01:40:36;;;;;;;1.67;0.90;;;;;;;;;;4994544;28;20015;-77
2023/06/04 01:43:02;;;;;;;2.73;1.17;;;;;;;;;;4996020;28;20041;-79
2023/06/04 01:45:29;;;;;;;3.57;1.40;;;;;;;;;;4996348;28;20038;-78
2023/06/04 01:47:55;;;;;;;1.80;1.10;;;;;;;;;;4995058;28;20095;-78
2023/06/04 01:50:21;;;;;;;3.30;1.40;;;;;;;;;;4995809;28;20042;-78
2023/06/04 01:52:47;;;;;;;5.37;1.50;;;;;;;;;;4996591;28;20007;-78
2023/06/04 01:55:15;;;;;;;2.57;1.00;;;;;;;;;;4995235;28;20039;-80
2023/06/04 01:57:41;;;;;;;3.00;1.10;;;;;;;;;;4998781;28;20021;-81
2023/06/04 02:00:09;;;;;;;1.57;0.97;;;;;;;;;;4995999;28;20011;-79
2023/06/04 02:02:40;;;;;;;3.63;1.40;;;;;;;;;;4995464;28;20046;-78
2023/06/04 02:05:09;;;;;;;2.17;1.27;;;;;;;;;;4998270;28;20069;-81
2023/06/04 02:07:38;;;;;;;1.57;1.00;;;;;;;;;;4997748;28;20050;-79
2023/06/04 02:10:04;;;;;;;1.80;1.00;;;;;;;;;;4993680;28;20038;-79
2023/06/04 02:13:03;;;;;;;1.70;0.87;;;;;;;;;;4993268;28;20086;-81
2023/06/04 02:15:30;;;;;;;2.60;1.10;;;;;;;;;;4954060;28;20034;-77
2023/06/04 02:18:15;;;;;;;2.30;1.00;;;;;;;;;;4994087;28;20030;-81
2023/06/04 02:20:42;;;;;;;2.77;0.97;;;;;;;;;;4992604;28;20031;-81
2023/06/04 02:23:08;;;;;;;3.73;1.20;;;;;;;;;;4995418;28;20023;-80
2023/06/04 02:25:34;;;;;;;2.70;1.10;;;;;;;;;;4993751;28;20057;-78
2023/06/04 02:28:00;;;;;;;1.90;1.00;;;;;;;;;;4994942;28;20015;-80
2023/06/04 02:30:26;;;;;;;3.47;1.20;;;;;;;;;;4994884;28;20029;-79
2023/06/04 02:32:54;;;;;;;1.63;1.20;;;;;;;;;;4996561;28;20038;-78
2023/06/04 02:35:24;;;;;;;2.70;1.50;;;;;;;;;;4997285;28;20030;-79
2023/06/04 02:37:50;;;;;;;1.97;0.93;;;;;;;;;;4991391;28;20027;-79
2023/06/04 02:40:17;;;;;;;3.70;1.07;;;;;;;;;;4992423;28;20033;-78
2023/06/04 02:42:45;;;;;;;2.43;1.30;;;;;;;;;;4993248;28;20055;-78
2023/06/04 02:45:11;;;;;;;5.67;1.20;;;;;;;;;;4994747;28;20038;-78
2023/06/04 02:47:40;;;;;;;1.33;1.00;;;;;;;;;;4994506;28;20042;-79
2023/06/04 02:50:09;;;;;;;1.53;0.80;;;;;;;;;;4994927;28;20081;-77
2023/06/04 02:52:36;;;;;;;3.83;1.10;;;;;;;;;;4991858;28;20030;-78
2023/06/04 02:55:05;;;;;;;4.30;1.23;;;;;;;;;;4996134;28;20099;-78
2023/06/04 02:57:31;;;;;;;2.87;1.17;;;;;;;;;;4996825;28;20026;-77
2023/06/04 02:59:57;;;;;;;12.70;1.50;;;;;;;;;;4994915;28;20034;-77
2023/06/04 03:02:23;;;;;;;3.97;1.10;;;;;;;;;;4992424;28;20058;-79
2023/06/04 03:04:51;;;;;;;2.57;1.20;;;;;;;;;;4991946;28;20033;-79
2023/06/04 03:07:20;;;;;;;2.63;1.33;;;;;;;;;;4992825;28;20039;-78
2023/06/04 03:09:49;;;;;;;3.43;1.00;;;;;;;;;;4994766;28;20433;-79
2023/06/04 03:12:15;;;;;;;2.30;1.17;;;;;;;;;;4995899;28;20039;-79
2023/06/04 03:14:41;;;;;;;7.40;1.23;;;;;;;;;;4991512;28;20051;-79
2023/06/04 03:17:07;;;;;;;2.20;1.30;;;;;;;;;;4989970;28;20015;-78
2023/06/04 03:19:36;;;;;;;5.77;1.43;;;;;;;;;;4992583;28;20029;-79
2023/06/04 03:22:05;;;;;;;1.97;1.17;;;;;;;;;;4991313;28;20135;-79
2023/06/04 03:24:31;;;;;;;1.77;0.93;;;;;;;;;;4994064;28;20061;-79
2023/06/04 03:26:57;;;;;;;4.23;0.90;;;;;;;;;;4990200;28;20078;-78
2023/06/04 03:29:23;;;;;;;2.93;1.30;;;;;;;;;;4995465;28;20659;-79
2023/06/04 03:31:49;;;;;;;6.10;1.73;;;;;;;;;;4988994;28;20015;-78
2023/06/04 03:34:15;;;;;;;2.10;1.20;;;;;;;;;;4995528;28;20023;-79
2023/06/04 03:36:42;;;;;;;3.20;1.80;;;;;;;;;;4998406;28;20031;-78
2023/06/04 03:39:08;;;;;;;3.77;1.20;;;;;;;;;;4998235;28;20125;-79
2023/06/04 03:41:34;;;;;;;2.23;1.27;;;;;;;;;;4997536;28;20034;-77
2023/06/04 03:44:00;;;;;;;1.43;0.97;;;;;;;;;;4993600;28;20107;-78
2023/06/04 03:46:28;;;;;;;3.37;1.30;;;;;;;;;;4997252;28;20027;-79
2023/06/04 03:48:54;;;;;;;4.10;1.20;;;;;;;;;;4997431;28;20020;-79
2023/06/04 03:51:20;;;;;;;3.73;1.50;;;;;;;;;;4993969;28;20050;-78
2023/06/04 03:53:49;;;;;;;2.00;1.33;;;;;;;;;;4997722;28;20035;-79
2023/06/04 03:56:15;;;;;;;2.50;1.30;;;;;;;;;;4996868;28;20035;-79
2023/06/04 03:58:41;;;;;;;5.50;2.07;;;;;;;;;;4992068;28;20026;-79
2023/06/04 04:01:10;;;;;;;2.53;1.50;;;;;;;;;;4994958;28;20034;-79
2023/06/04 04:03:37;;;;;;;3.17;1.03;;;;;;;;;;4995969;28;20038;-78
2023/06/04 04:06:03;;;;;;;3.73;1.00;;;;;;;;;;4995630;28;20058;-78
2023/06/04 04:08:31;;;;;;;3.47;1.50;;;;;;;;;;4990484;28;20031;-78
2023/06/04 04:10:57;;;;;;;4.70;1.23;;;;;;;;;;4999096;28;20022;-78
2023/06/04 04:13:23;;;;;;;2.10;1.27;;;;;;;;;;4999366;28;20042;-78
2023/06/04 04:15:52;;;;;;;4.20;1.50;;;;;;;;;;4994713;28;20019;-79
2023/06/04 04:18:22;;;;;;;2.73;1.40;;;;;;;;;;4996866;28;20027;-78
2023/06/04 04:20:48;;;;;;;3.97;1.27;;;;;;;;;;4997305;28;20026;-80
2023/06/04 04:23:14;;;;;;;3.47;1.33;;;;;;;;;;4996331;28;20461;-80
2023/06/04 04:25:41;;;;;;;4.87;1.43;;;;;;;;;;4994899;28;20045;-78
2023/06/04 04:28:07;;;;;;;3.10;1.17;;;;;;;;;;4999718;28;20081;-79
2023/06/04 04:30:36;;;;;;;4.50;1.30;;;;;;;;;;4993428;28;20031;-79
2023/06/04 04:33:05;;;;;;;3.57;1.30;;;;;;;;;;4997173;28;20015;-79
2023/06/04 04:35:32;;;;;;;1.60;1.03;;;;;;;;;;4995959;28;20031;-80
2023/06/04 04:38:05;;;;;;;3.20;1.33;;;;;;;;;;4999122;28;20064;-78
2023/06/04 04:40:31;;;;;;;4.10;1.65;;;;;;;;;;4994570;28;20045;-78
2023/06/04 04:42:57;;;;;;;2.67;1.30;;;;;;;;;;4995839;28;20014;-78
2023/06/04 04:45:23;;;;;;;3.40;1.57;;;;;;;;;;4996613;28;20046;-79
2023/06/04 04:47:50;;;;;;;1.93;1.27;;;;;;;;;;4996699;28;20045;-79
2023/06/04 04:50:16;;;;;;;2.00;1.17;;;;;;;;;;4995004;28;20146;-78
2023/06/04 04:52:43;;;;;;;4.07;1.43;;;;;;;;;;4999610;28;20018;-78
2023/06/04 04:55:09;;;;;;;2.70;1.40;;;;;;;;;;4998666;28;20029;-76
2023/06/04 04:57:35;;;;;;;3.27;1.43;;;;;;;;;;4996740;28;20105;-78
2023/06/04 05:00:06;;;;;;;3.67;1.33;;;;;;;;;;4997067;28;20051;-78
2023/06/04 05:02:33;;;;;;;2.43;1.50;;;;;;;;;;4997540;28;20026;-79
2023/06/04 05:04:59;;;;;;;4.23;1.60;;;;;;;;;;4995055;28;20130;-80
2023/06/04 05:07:27;;;;;;;5.67;1.60;;;;;;;;;;4995661;28;20034;-80
2023/06/04 05:09:53;;;;;;;4.97;1.40;;;;;;;;;;4995078;28;20091;-79
2023/06/04 05:12:19;;;;;;;4.37;1.30;;;;;;;;;;4998618;28;20026;-80
2023/06/04 05:14:48;;;;;;;4.33;1.30;;;;;;;;;;4996285;28;20036;-78
2023/06/04 05:17:16;;;;;;;2.40;1.30;;;;;;;;;;4990959;28;20085;-79
2023/06/04 05:19:42;;;;;;;2.23;1.33;;;;;;;;;;4994841;28;20028;-79
2023/06/04 05:22:08;;;;;;;3.47;1.13;;;;;;;;;;4994666;28;20030;-79
2023/06/04 05:24:34;;;;;;;6.87;1.20;;;;;;;;;;4996496;28;20057;-79
2023/06/04 05:27:01;;;;;;;2.57;1.33;;;;;;;;;;4996163;28;20022;-80
2023/06/04 05:29:27;;;;;;;5.37;1.57;;;;;;;;;;4991374;28;20091;-80
2023/06/04 05:31:53;;;;;;;9.60;1.47;;;;;;;;;;4998743;28;20042;-81
2023/06/04 05:34:21;;;;;;;5.87;1.20;;;;;;;;;;4999450;28;20010;-80
2023/06/04 05:36:47;;;;;;;3.10;1.10;;;;;;;;;;4996567;28;20050;-80
2023/06/04 05:39:13;;;;;;;6.10;1.40;;;;;;;;;;4995862;28;20046;-80
2023/06/04 05:41:42;;;;;;;4.43;1.43;;;;;;;;;;4994935;28;20139;-80
2023/06/04 05:44:08;;;;;;;3.27;1.13;;;;;;;;;;4995633;28;20030;-79
2023/06/04 05:46:34;;;;;;;3.20;1.00;;;;;;;;;;4994063;28;20046;-81
2023/06/04 05:49:00;;;;;;;4.50;1.10;;;;;;;;;;4999649;28;20030;-79
2023/06/04 05:51:26;;;;;;;2.77;1.20;;;;;;;;;;4994910;28;20028;-79
2023/06/04 05:53:52;;;;;;;4.77;1.47;;;;;;;;;;4998058;28;20049;-81
2023/06/04 05:56:21;;;;;;;4.60;1.60;;;;;;;;;;4994366;28;20034;-80
2023/06/04 05:58:52;;;;;;;2.20;1.17;;;;;;;;;;4993662;28;20026;-81
2023/06/04 06:01:18;;;;;;;2.20;1.23;;;;;;;;;;4993494;28;20090;-81
2023/06/04 06:03:44;;;;;;;4.97;1.33;;;;;;;;;;4994449;28;20027;-80
2023/06/04 06:06:12;;;;;;;2.70;1.20;;;;;;;;;;4995155;28;20115;-79
2023/06/04 06:08:38;;;;;;;1.70;1.00;;;;;;;;;;4992595;28;20041;-79
2023/06/04 06:11:06;;;;;;;2.03;1.13;;;;;;;;;;4993127;28;20041;-80
2023/06/04 06:13:33;;;;;;;2.97;1.40;;;;;;;;;;4993816;28;20027;-80
2023/06/04 06:15:59;;;;;;;2.77;1.47;;;;;;;;;;4990742;28;20037;-80
2023/06/04 06:18:25;;;;;;;1.80;0.70;;;;;;;;;;4987723;28;20115;-79
2023/06/04 06:20:51;;;;;;;3.37;1.03;;;;;;;;;;4994548;28;20012;-80
2023/06/04 06:23:19;;;;;;;1.83;1.30;;;;;;;;;;4991296;28;20221;-82
2023/06/04 06:25:45;;;;;;;2.60;1.07;;;;;;;;;;4993878;28;20055;-80
2023/06/04 06:28:21;;;;;;;2.47;1.20;;;;;;;;;;4981535;28;20049;-80
2023/06/04 06:30:50;;;;;;;4.70;1.23;;;;;;;;;;4997483;28;20087;-80
2023/06/04 06:33:16;;;;;;;2.63;1.30;;;;;;;;;;4994509;28;20070;-80
2023/06/04 06:35:42;;;;;;;3.00;1.40;;;;;;;;;;4994242;28;20026;-79
2023/06/04 06:38:08;;;;;;;5.13;1.30;;;;;;;;;;4993565;28;20030;-78
2023/06/04 06:40:34;;;;;;;1.67;1.00;;;;;;;;;;4994137;28;20018;-78
2023/06/04 06:43:06;;;;;;;5.67;1.20;;;;;;;;;;4992908;28;20023;-79
2023/06/04 06:45:34;;;;;;;4.50;1.37;;;;;;;;;;4990043;28;20047;-80
2023/06/04 06:48:00;;;;;;;6.93;1.20;;;;;;;;;;4990720;28;20034;-80
2023/06/04 06:50:26;;;;;;;5.43;1.33;;;;;;;;;;4995908;28;20061;-81
2023/06/04 06:52:52;;;;;;;3.33;1.47;;;;;;;;;;4992763;28;20010;-80
2023/06/04 06:55:18;;;;;;;3.73;1.50;;;;;;;;;;4995768;28;21058;-80
2023/06/04 06:57:45;;;;;;;5.40;1.30;;;;;;;;;;4991704;28;20038;-80
2023/06/04 07:00:11;;;;;;;2.77;1.60;;;;;;;;;;4992535;28;20027;-79
2023/06/04 07:02:37;;;;;;;4.63;1.43;;;;;;;;;;4990351;28;20095;-79
2023/06/04 07:05:03;;;;;;;2.50;1.00;;;;;;;;;;4993549;28;20030;-80
2023/06/04 07:07:29;;;;;;;3.03;1.63;;;;;;;;;;4993410;28;20140;-79
2023/06/04 07:09:55;;;;;;;1.97;1.13;;;;;;;;;;4987577;28;20030;-80
2023/06/04 07:12:21;;;;;;;3.37;1.40;;;;;;;;;;4993145;28;20023;-80
2023/06/04 07:14:50;;;;;;;9.27;1.57;;;;;;;;;;4993062;28;20027;-80
2023/06/04 07:17:16;;;;;;;4.40;1.30;;;;;;;;;;4990047;28;20031;-79
2023/06/04 07:19:42;;;;;;;4.27;1.50;;;;;;;;;;4991615;28;20115;-80
2023/06/04 07:22:08;;;;;;;1.43;1.00;;;;;;;;;;4992116;28;20035;-80
2023/06/04 07:24:34;;;;;;;2.03;1.10;;;;;;;;;;4994193;28;20054;-80
2023/06/04 07:27:00;;;;;;;2.53;1.43;;;;;;;;;;4994298;28;20027;-80
2023/06/04 07:29:26;;;;;;;2.47;1.40;;;;;;;;;;4988128;28;20034;-80
2023/06/04 07:31:52;;;;;;;8.03;1.60;;;;;;;;;;4991331;28;20042;-79
2023/06/04 07:34:21;;;;;;;1.80;1.10;;;;;;;;;;4992058;28;20035;-79
2023/06/04 07:36:47;;;;;;;5.23;1.40;;;;;;;;;;4987450;28;20082;-80
2023/06/04 07:39:13;;;;;;;4.70;1.30;;;;;;;;;;4991189;28;20033;-80
2023/06/04 07:41:39;;;;;;;3.67;1.40;;;;;;;;;;4993556;28;20019;-80
2023/06/04 07:44:05;;;;;;;2.70;1.30;;;;;;;;;;4987818;28;20038;-79
2023/06/04 07:46:31;;;;;;;2.65;1.27;;;;;;;;;;4987005;28;20022;-80
2023/06/04 07:49:00;;;;;;;3.87;1.20;;;;;;;;;;4993837;28;20034;-79
2023/06/04 07:51:26;;;;;;;5.03;1.50;;;;;;;;;;4992721;28;20054;-81
2023/06/04 07:53:52;;;;;;;4.50;1.88;;;;;;;;;;4996809;28;20054;-81
2023/06/04 07:56:18;;;;;;;5.15;1.75;;;;;;;;;;4988024;28;20027;-80
2023/06/04 07:58:45;;;;;;;2.80;1.27;;;;;;;;;;4995812;28;20031;-80
2023/06/04 08:01:11;;;;;;;2.35;1.27;;;;;;;;;;4994818;28;20015;-80
2023/06/04 08:03:37;;;;;;;2.85;1.40;;;;;;;;;;4993919;28;20030;-80
2023/06/04 08:06:03;;;;;;;3.13;1.35;;;;;;;;;;4989799;28;20034;-81
2023/06/04 08:08:29;;;;;;;2.20;1.27;;;;;;;;;;4991936;28;20046;-81
2023/06/04 08:10:55;;;;;;;1.75;1.05;;;;;;;;;;4998450;28;20026;-80
2023/06/04 08:13:22;;;;;;;4.15;1.20;;;;;;;;;;4993220;28;20086;-80
2023/06/04 08:15:48;;;;;;;4.07;1.42;;;;;;;;;;4994680;28;20035;-80
2023/06/04 08:18:14;;;;;;;2.10;1.40;;;;;;;;;;4989249;28;20024;-80
2023/06/04 08:20:40;;;;;;;4.05;1.50;;;;;;;;;;4995951;28;20030;-80
2023/06/04 08:23:06;;;;;;;3.88;1.00;;;;;;;;;;4998448;28;20019;-80
2023/06/04 08:25:33;;;;;;;4.57;1.35;;;;;;;;;;4998782;28;20034;-80
2023/06/04 08:27:59;;;;;;;4.28;1.10;;;;;;;;;;4993188;28;20023;-80
2023/06/04 08:30:27;;;;;;;5.93;3.30;;;;;;;;;;4995172;28;20050;-80
2023/06/04 08:32:53;;;;;;;2.97;1.38;;;;;;;;;;4997056;28;20022;-79
2023/06/04 08:35:19;;;;;;;9.93;1.60;;;;;;;;;;4994551;28;20109;-81
2023/06/04 08:37:45;;;;;;;4.20;1.42;;;;;;;;;;4994980;28;20054;-79
2023/06/04 08:40:12;;;;;;;5.43;1.48;;;;;;;;;;4988934;28;20046;-79
2023/06/04 08:42:44;;;;;;;3.97;1.58;;;;;;;;;;4994786;28;20087;-80
2023/06/04 08:45:11;;;;;;;3.45;1.35;;;;;;;;;;4991383;28;20055;-81
2023/06/04 08:47:41;;;;;;;5.30;1.48;;;;;;;;;;4993124;28;20281;-81
2023/06/04 08:50:10;;;;;;;4.85;1.45;;;;;;;;;;4996109;28;20022;-80
2023/06/04 08:52:36;;;;;;;4.47;1.25;;;;;;;;;;4991289;28;20055;-82
2023/06/04 08:55:02;;;;;;;3.67;1.10;;;;;;;;;;4995341;28;20011;-80
2023/06/04 08:57:34;;;;;;;5.20;1.25;;;;;;;;;;4997620;28;20007;-82
2023/06/04 09:00:00;;;;;;;4.43;1.17;;;;;;;;;;4990961;28;20047;-80
2023/06/04 09:02:28;;;;;;;5.30;1.00;;;;;;;;;;4993650;28;20038;-81
2023/06/04 09:04:54;;;;;;;5.80;1.25;;;;;;;;;;4990000;28;20049;-80
2023/06/04 09:07:21;;;;;;;1.75;1.17;;;;;;;;;;4993489;28;20046;-82
2023/06/04 09:09:47;;;;;;;1.95;1.15;;;;;;;;;;4992474;28;20117;-81
2023/06/04 09:12:18;;;;;;;6.00;1.30;;;;;;;;;;4990143;28;20027;-82
2023/06/04 09:14:44;;;;;;;2.10;1.17;;;;;;;;;;4990163;28;20392;-83
2023/06/04 09:17:15;;;;;;;4.32;1.33;;;;;;;;;;4989739;28;20125;-84
2023/06/04 09:19:41;;;;;;;5.30;1.47;;;;;;;;;;4990335;28;20035;-82
2023/06/04 09:22:07;;;;;;;1.90;0.98;;;;;;;;;;4984546;28;20042;-84
2023/06/04 09:24:41;;;;;;;2.67;1.08;;;;;;;;;;4992144;28;20026;-85
2023/06/04 09:27:15;;;;;;;4.55;1.60;;;;;;;;;;4987364;28;20026;-86
2023/06/04 09:29:50;;;;;;;3.65;1.10;;;;;;;;;;4986225;28;20035;-83
2023/06/04 09:32:21;;;;;;;2.20;1.08;;;;;;;;;;4977119;28;20026;-86
2023/06/04 09:34:46;;;;;;;5.45;1.83;;;;;;;;;;4976964;28;20377;-86
2023/06/04 09:37:17;;;;;;;2.53;1.10;;;;;;;;;;4966552;28;20247;-87
2023/06/04 09:39:43;;;;;;;4.05;1.40;;;;;;;;;;4974337;28;20404;-85
2023/06/04 09:42:09;;;;;;;2.03;1.40;;;;;;;;;;4966660;28;20345;-85
2023/06/04 09:44:45;;;;;;;5.82;1.40;;;;;;;;;;4967656;28;20048;-85
2023/06/04 09:47:11;;;;;;;2.55;1.50;;;;;;;;;;4968820;28;20034;-84
2023/06/04 09:49:46;;;;;;;3.95;1.45;;;;;;;;;;4967208;28;20041;-86
2023/06/04 09:52:12;;;;;;;3.03;1.48;;;;;;;;;;4968251;28;20587;-86
2023/06/04 09:54:39;;;;;;;2.10;1.02;;;;;;;;;;4968708;28;20220;-87
2023/06/04 09:57:06;;;;;;;2.83;1.02;;;;;;;;;;4963457;28;20034;-85
2023/06/04 09:59:36;;;;;;;2.00;1.20;;;;;;;;;;4968848;28;20071;-85
2023/06/04 10:02:06;;;;;;;3.38;1.20;;;;;;;;;;4967040;28;20179;-86
2023/06/04 10:04:34;;;;;;;2.33;1.05;;;;;;;;;;4974513;28;20034;-86
2023/06/04 10:07:03;;;;;;;2.53;1.20;;;;;;;;;;4970660;28;20058;-86
2023/06/04 10:09:29;;;;;;;2.22;1.20;;;;;;;;;;4968919;28;20023;-86
2023/06/04 10:12:01;;;;;;;2.00;1.15;;;;;;;;;;4967476;28;20033;-87
2023/06/04 10:14:51;;;;;;;5.05;1.17;;;;;;;;;;4972479;28;20035;-87
2023/06/04 10:17:21;;;;;;;2.30;1.08;;;;;;;;;;4957339;28;20066;-87
2023/06/04 10:19:48;;;;;;;5.82;1.45;;;;;;;;;;4963837;28;20027;-87
2023/06/04 10:22:14;;;;;;;2.58;1.20;;;;;;;;;;4969074;28;20027;-86
2023/06/04 10:24:43;;;;;;;1.60;1.00;;;;;;;;;;4970628;28;20057;-87
2023/06/04 10:27:12;;;;;;;1.67;0.95;;;;;;;;;;4972913;28;20050;-87
2023/06/04 10:29:39;;;;;;;3.85;0.95;;;;;;;;;;4966652;28;20037;-86
2023/06/04 10:32:08;;;;;;;4.97;1.13;;;;;;;;;;4964056;28;20130;-87
2023/06/04 10:34:36;;;;;;;2.13;1.00;;;;;;;;;;4972200;28;20038;-85
2023/06/04 10:37:03;;;;;;;1.98;0.95;;;;;;;;;;4968627;28;20030;-86
2023/06/04 10:39:32;;;;;;;3.45;1.17;;;;;;;;;;4971475;28;20120;-87
2023/06/04 10:41:59;;;;;;;1.48;1.20;;;;;;;;;;4972729;28;21685;-86
2023/06/04 10:44:25;;;;;;;2.90;1.35;;;;;;;;;;4973413;28;20081;-88
2023/06/04 10:46:53;;;;;;;4.03;1.23;;;;;;;;;;4966819;28;20432;-87
2023/06/04 10:49:29;;;;;;;2.53;1.33;;;;;;;;;;4963820;28;20059;-87
2023/06/04 10:51:57;;;;;;;2.85;1.27;;;;;;;;;;4963222;28;20042;-87
2023/06/04 10:54:26;;;;;;;4.75;1.40;;;;;;;;;;4967521;28;20109;-86
2023/06/04 10:56:53;;;;;;;2.70;1.20;;;;;;;;;;4972272;28;20141;-85
2023/06/04 10:59:19;;;;;;;2.40;1.23;;;;;;;;;;4963262;28;20030;-87
2023/06/04 11:01:46;;;;;;;2.28;1.08;;;;;;;;;;4969428;28;20074;-85
2023/06/04 11:04:22;;;;;;;2.85;1.05;;;;;;;;;;4967844;28;20042;-86
2023/06/04 11:06:48;;;;;;;1.65;1.10;;;;;;;;;;4969515;28;20471;-85
2023/06/04 11:09:16;;;;;;;3.67;1.08;;;;;;;;;;4969432;28;20026;-87
2023/06/04 11:11:45;;;;;;;5.10;0.88;;;;;;;;;;4974770;28;20093;-86
2023/06/04 11:14:15;;;;;;;2.55;1.30;;;;;;;;;;4967631;28;20093;-85
2023/06/04 11:16:41;;;;;;;2.17;0.95;;;;;;;;;;4965263;28;20023;-86
2023/06/04 11:19:07;;;;;;;6.00;1.05;;;;;;;;;;4970691;28;20033;-87
2023/06/04 11:21:37;;;;;;;1.70;0.82;;;;;;;;;;4970655;28;20109;-88
2023/06/04 11:24:04;;;;;;;3.72;1.00;;;;;;;;;;4970978;28;20031;-86
2023/06/04 11:26:34;;;;;;;3.20;1.05;;;;;;;;;;4973441;28;20027;-87
2023/06/04 11:29:00;;;;;;;1.73;0.88;;;;;;;;;;4971152;28;20034;-85
2023/06/04 11:31:27;;;;;;;5.80;1.00;;;;;;;;;;4974616;28;20031;-86
2023/06/04 11:33:53;;;;;;;4.57;1.30;;;;;;;;;;4971836;28;20053;-85
2023/06/04 11:36:23;;;;;;;1.95;1.02;;;;;;;;;;4946882;28;20076;-86
2023/06/04 11:38:59;;;;;;;4.60;1.42;;;;;;;;;;4969667;28;20034;-87
2023/06/04 11:41:27;;;;;;;8.30;1.25;;;;;;;;;;4977558;28;20484;-86
2023/06/04 11:43:53;;;;;;;3.83;1.42;;;;;;;;;;4976721;28;20101;-86
2023/06/04 11:46:20;;;;;;;3.13;0.95;;;;;;;;;;4970753;28;20034;-86
2023/06/04 11:48:48;;;;;;;3.95;1.10;;;;;;;;;;4972819;28;20066;-86
2023/06/04 11:51:15;;;;;;;6.18;1.20;;;;;;;;;;4976086;28;20107;-87
2023/06/04 11:53:41;;;;;;;2.45;1.10;;;;;;;;;;4966824;28;20387;-87
2023/06/04 11:56:07;;;;;;;2.75;1.13;;;;;;;;;;4970642;28;20038;-87
2023/06/04 11:58:33;;;;;;;2.53;0.82;;;;;;;;;;4973849;28;20038;-86
2023/06/04 12:01:00;;;;;;;3.38;1.05;;;;;;;;;;4972626;28;20094;-86
2023/06/04 12:03:35;;;;;;;1.67;1.13;;;;;;;;;;4970203;28;20031;-85
2023/06/04 12:06:09;;;;;;;1.83;0.95;;;;;;;;;;4969951;28;20046;-86
2023/06/04 12:08:44;;;;;;;2.88;1.20;;;;;;;;;;4971619;28;20042;-85
2023/06/04 12:11:10;;;;;;;2.05;1.23;;;;;;;;;;4970490;28;20109;-87
2023/06/04 12:13:41;;;;;;;2.65;1.20;;;;;;;;;;4970007;28;20035;-84
2023/06/04 12:16:07;;;;;;;1.83;1.10;;;;;;;;;;4970156;28;20034;-86
2023/06/04 12:18:36;;;;;;;2.65;1.30;;;;;;;;;;4970228;28;20039;-86
2023/06/04 12:21:02;;;;;;;1.73;0.95;;;;;;;;;;4969870;28;20030;-87
2023/06/04 12:23:28;;;;;;;3.15;1.00;;;;;;;;;;4971003;28;20122;-86
2023/06/04 12:25:55;;;;;;;3.70;0.90;;;;;;;;;;4971784;28;20023;-86
2023/06/04 12:28:21;;;;;;;2.75;0.88;;;;;;;;;;4970639;28;20093;-85
2023/06/04 12:30:47;;;;;;;1.65;1.10;;;;;;;;;;4972677;28;20122;-86
2023/06/04 12:33:13;;;;;;;2.70;1.15;;;;;;;;;;4976878;28;20023;-86
2023/06/04 12:35:39;;;;;;;3.33;1.08;;;;;;;;;;4975212;28;20057;-86
2023/06/04 12:38:05;;;;;;;2.55;1.10;;;;;;;;;;4972107;28;20052;-86
2023/06/04 12:40:31;;;;;;;2.67;0.70;;;;;;;;;;4976621;28;20043;-86
2023/06/04 12:42:57;;;;;;;1.98;0.95;;;;;;;;;;4974086;28;20035;-84
2023/06/04 12:45:26;;;;;;;1.33;1.05;;;;;;;;;;4969342;28;20351;-87
2023/06/04 12:47:52;;;;;;;4.75;1.45;;;;;;;;;;4971089;28;20031;-85
2023/06/04 12:50:18;;;;;;;3.47;1.40;;;;;;;;;;4971180;28;20033;-86
2023/06/04 12:52:44;;;;;;;6.30;1.23;;;;;;;;;;4972211;28;20022;-85
2023/06/04 12:55:10;;;;;;;4.38;1.17;;;;;;;;;;4971295;28;20042;-85
2023/06/04 12:57:38;;;;;;;3.38;1.38;;;;;;;;;;4971519;28;20093;-86
2023/06/04 13:00:05;;;;;;;1.83;1.20;;;;;;;;;;4971690;28;20047;-86
2023/06/04 13:02:30;;;;;;;5.43;1.30;;;;;;;;;;4966733;28;20026;-87
2023/06/04 13:04:59;;;;;;;2.13;1.08;;;;;;;;;;4973130;28;20137;-86
2023/06/04 13:07:25;;;;;;;3.13;1.30;;;;;;;;;;4970101;28;20956;-86
2023/06/04 13:09:51;;;;;;;8.93;1.30;;;;;;;;;;4973931;28;20190;-86
2023/06/04 13:12:17;;;;;;;9.73;1.58;;;;;;;;;;4968762;28;20436;-86
2023/06/04 13:14:43;;;;;;;2.53;1.13;;;;;;;;;;4972625;28;20034;-87
2023/06/04 13:17:09;;;;;;;3.15;1.48;;;;;;;;;;4971197;28;20110;-87
2023/06/04 13:19:36;;;;;;;2.55;1.25;;;;;;;;;;4968233;28;20054;-83
2023/06/04 13:22:02;;;;;;;5.07;1.25;;;;;;;;;;4970608;28;20023;-83
2023/06/04 13:24:28;;;;;;;4.90;1.30;;;;;;;;;;4965117;28;20090;-89
2023/06/04 13:26:55;;;;;;;4.38;1.48;;;;;;;;;;4972668;28;20031;-87
2023/06/04 13:29:23;;;;;;;4.28;1.48;;;;;;;;;;4969227;28;20483;-86
2023/06/04 13:31:49;;;;;;;3.13;1.25;;;;;;;;;;4969317;28;20094;-85
2023/06/04 13:34:15;;;;;;;2.47;1.20;;;;;;;;;;4969118;28;20023;-87
2023/06/04 13:36:41;;;;;;;1.95;0.90;;;;;;;;;;4963132;28;20093;-86
2023/06/04 13:39:07;;;;;;;1.60;1.20;;;;;;;;;;4970730;28;20023;-86
2023/06/04 13:41:33;;;;;;;2.38;1.20;;;;;;;;;;4964906;28;20034;-86
2023/06/04 13:43:59;;;;;;;3.22;1.27;;;;;;;;;;4971117;28;20061;-86
2023/06/04 13:46:25;;;;;;;3.75;1.35;;;;;;;;;;4966526;28;20100;-85
2023/06/04 13:48:51;;;;;;;3.88;1.27;;;;;;;;;;4965897;28;20035;-86
2023/06/04 13:51:17;;;;;;;6.90;1.60;;;;;;;;;;4969805;28;20019;-87
2023/06/04 13:53:43;;;;;;;2.17;1.30;;;;;;;;;;4971184;28;20039;-88
2023/06/04 13:56:11;;;;;;;3.63;1.58;;;;;;;;;;4972643;28;20035;-87
2023/06/04 13:58:37;;;;;;;4.93;1.38;;;;;;;;;;4970359;28;20027;-87
2023/06/04 14:01:03;;;;;;;2.28;1.15;;;;;;;;;;4970466;28;20082;-85
2023/06/04 14:03:31;;;;;;;2.30;1.48;;;;;;;;;;4966550;28;20049;-86
2023/06/04 14:06:03;;;;;;;2.13;1.45;;;;;;;;;;4970799;28;20303;-88
2023/06/04 14:08:29;;;;;;;3.58;1.20;;;;;;;;;;4969101;28;20039;-87
2023/06/04 14:10:56;;;;;;;3.53;1.50;;;;;;;;;;4971481;28;20081;-87
2023/06/04 14:13:22;;;;;;;3.55;1.10;;;;;;;;;;4967903;28;20026;-88
2023/06/04 14:15:48;;;;;;;3.20;1.30;;;;;;;;;;4964321;28;20030;-87
2023/06/04 14:18:14;;;;;;;2.08;1.50;;;;;;;;;;4965267;28;20026;-87
2023/06/04 14:20:40;;;;;;;2.30;1.40;;;;;;;;;;4969167;28;20027;-86
2023/06/04 14:23:06;;;;;;;6.78;1.45;;;;;;;;;;4968844;28;20031;-88
2023/06/04 14:25:36;;;;;;;3.63;1.63;;;;;;;;;;4967084;28;20041;-88
2023/06/04 14:28:02;;;;;;;4.65;1.40;;;;;;;;;;4966025;28;20023;-87
2023/06/04 14:30:30;;;;;;;2.33;1.30;;;;;;;;;;4969959;28;20114;-88
2023/06/04 14:32:56;;;;;;;3.03;1.40;;;;;;;;;;4965770;28;20023;-87
2023/06/04 14:35:24;;;;;;;1.65;1.23;;;;;;;;;;4973779;28;20027;-86
2023/06/04 14:38:01;;;;;;;1.77;1.30;;;;;;;;;;4971414;28;20031;-85
2023/06/04 14:40:27;;;;;;;4.07;1.20;;;;;;;;;;4975235;28;20030;-87
2023/06/04 14:42:57;;;;;;;3.53;1.30;;;;;;;;;;4970142;28;20049;-85
2023/06/04 14:45:25;;;;;;;2.38;1.48;;;;;;;;;;4963296;28;20082;-86